sensor_id;sensor_type;location;lat;lon;timestamp;P1;durP1;ratioP1;P2;durP2;ratioP2
77612;SDS011;66777;52.282;5.960;2023-07-13T00:01:45;738.67;;;708.72;;
77612;SDS011;66777;52.282;5.960;2023-07-13T00:06:41;748.38;;;716.65;;
77612;SDS011;66777;52.282;5.960;2023-07-13T00:09:09;745.05;;;714.03;;
77612;SDS011;66777;52.282;5.960;2023-07-13T00:11:40;734.20;;;704.78;;
77612;SDS011;66777;52.282;5.960;2023-07-13T00:14:06;747.53;;;715.83;;
77612;SDS011;66777;52.282;5.960;2023-07-13T00:16:33;747.17;;;715.45;;
77612;SDS011;66777;52.282;5.960;2023-07-13T00:19:01;741.40;;;710.88;;
77612;SDS011;66777;52.282;5.960;2023-07-13T00:21:26;737.67;;;707.65;;
77612;SDS011;66777;52.282;5.960;2023-07-13T00:23:52;746.22;;;714.45;;
77612;SDS011;66777;52.282;5.960;2023-07-13T00:26:18;733.85;;;704.10;;
77612;SDS011;66777;52.282;5.960;2023-07-13T00:28:43;733.17;;;703.90;;
77612;SDS011;66777;52.282;5.960;2023-07-13T00:31:10;736.03;;;705.55;;
77612;SDS011;66777;52.282;5.960;2023-07-13T00:33:37;733.80;;;704.45;;
77612;SDS011;66777;52.282;5.960;2023-07-13T00:36:03;735.95;;;705.70;;
77612;SDS011;66777;52.282;5.960;2023-07-13T00:38:29;730.85;;;701.72;;
77612;SDS011;66777;52.282;5.960;2023-07-13T00:40:55;734.72;;;704.83;;
77612;SDS011;66777;52.282;5.960;2023-07-13T00:43:21;735.80;;;706.25;;
77612;SDS011;66777;52.282;5.960;2023-07-13T00:48:18;733.50;;;704.28;;
77612;SDS011;66777;52.282;5.960;2023-07-13T00:50:51;724.97;;;696.13;;
77612;SDS011;66777;52.282;5.960;2023-07-13T00:53:19;731.35;;;702.10;;
77612;SDS011;66777;52.282;5.960;2023-07-13T00:55:45;738.85;;;708.35;;
77612;SDS011;66777;52.282;5.960;2023-07-13T00:58:13;740.33;;;709.25;;
77612;SDS011;66777;52.282;5.960;2023-07-13T01:00:40;736.25;;;706.35;;
77612;SDS011;66777;52.282;5.960;2023-07-13T01:03:06;740.38;;;709.85;;
77612;SDS011;66777;52.282;5.960;2023-07-13T01:05:33;743.28;;;712.92;;
77612;SDS011;66777;52.282;5.960;2023-07-13T01:08:00;748.05;;;716.28;;
77612;SDS011;66777;52.282;5.960;2023-07-13T01:10:27;736.45;;;706.17;;
77612;SDS011;66777;52.282;5.960;2023-07-13T01:12:53;738.63;;;708.55;;
77612;SDS011;66777;52.282;5.960;2023-07-13T01:18:23;738.45;;;708.58;;
77612;SDS011;66777;52.282;5.960;2023-07-13T01:23:26;735.00;;;705.08;;
77612;SDS011;66777;52.282;5.960;2023-07-13T01:25:53;737.70;;;707.47;;
77612;SDS011;66777;52.282;5.960;2023-07-13T01:28:20;731.95;;;702.55;;
77612;SDS011;66777;52.282;5.960;2023-07-13T01:30:46;740.20;;;710.10;;
77612;SDS011;66777;52.282;5.960;2023-07-13T01:33:13;736.63;;;706.80;;
77612;SDS011;66777;52.282;5.960;2023-07-13T01:35:41;749.75;;;717.97;;
77612;SDS011;66777;52.282;5.960;2023-07-13T01:38:07;737.35;;;707.15;;
77612;SDS011;66777;52.282;5.960;2023-07-13T01:40:34;738.67;;;708.80;;
77612;SDS011;66777;52.282;5.960;2023-07-13T01:43:01;739.92;;;709.75;;
77612;SDS011;66777;52.282;5.960;2023-07-13T01:45:26;736.10;;;706.05;;
77612;SDS011;66777;52.282;5.960;2023-07-13T01:47:52;741.30;;;711.20;;
77612;SDS011;66777;52.282;5.960;2023-07-13T01:50:18;739.17;;;709.38;;
77612;SDS011;66777;52.282;5.960;2023-07-13T01:52:43;739.40;;;709.20;;
77612;SDS011;66777;52.282;5.960;2023-07-13T01:55:09;729.17;;;700.35;;
77612;SDS011;66777;52.282;5.960;2023-07-13T01:57:35;737.38;;;707.17;;
77612;SDS011;66777;52.282;5.960;2023-07-13T02:00:04;737.03;;;707.28;;
77612;SDS011;66777;52.282;5.960;2023-07-13T02:02:32;739.78;;;709.38;;
77612;SDS011;66777;52.282;5.960;2023-07-13T02:04:57;727.75;;;698.95;;
77612;SDS011;66777;52.282;5.960;2023-07-13T02:07:23;731.97;;;702.47;;
77612;SDS011;66777;52.282;5.960;2023-07-13T02:09:49;738.58;;;708.47;;
77612;SDS011;66777;52.282;5.960;2023-07-13T02:12:14;741.65;;;711.25;;
77612;SDS011;66777;52.282;5.960;2023-07-13T02:14:40;731.05;;;701.72;;
77612;SDS011;66777;52.282;5.960;2023-07-13T02:17:06;735.47;;;705.65;;
77612;SDS011;66777;52.282;5.960;2023-07-13T02:19:31;734.50;;;704.85;;
77612;SDS011;66777;52.282;5.960;2023-07-13T02:21:57;741.92;;;711.67;;
77612;SDS011;66777;52.282;5.960;2023-07-13T02:24:23;736.30;;;706.28;;
77612;SDS011;66777;52.282;5.960;2023-07-13T02:26:49;739.50;;;709.20;;
77612;SDS011;66777;52.282;5.960;2023-07-13T02:29:15;734.92;;;704.72;;
77612;SDS011;66777;52.282;5.960;2023-07-13T02:31:40;731.72;;;702.38;;
77612;SDS011;66777;52.282;5.960;2023-07-13T02:34:06;719.70;;;691.95;;
77612;SDS011;66777;52.282;5.960;2023-07-13T02:36:32;743.35;;;712.38;;
77612;SDS011;66777;52.282;5.960;2023-07-13T02:39:00;732.80;;;703.67;;
77612;SDS011;66777;52.282;5.960;2023-07-13T02:41:27;738.65;;;708.65;;
77612;SDS011;66777;52.282;5.960;2023-07-13T02:43:53;744.08;;;713.92;;
77612;SDS011;66777;52.282;5.960;2023-07-13T02:46:27;735.25;;;705.72;;
77612;SDS011;66777;52.282;5.960;2023-07-13T02:48:54;740.33;;;710.75;;
77612;SDS011;66777;52.282;5.960;2023-07-13T02:51:19;723.38;;;695.30;;
77612;SDS011;66777;52.282;5.960;2023-07-13T02:53:45;725.38;;;697.13;;
77612;SDS011;66777;52.282;5.960;2023-07-13T02:56:11;735.00;;;705.85;;
77612;SDS011;66777;52.282;5.960;2023-07-13T02:58:37;735.03;;;705.20;;
77612;SDS011;66777;52.282;5.960;2023-07-13T03:01:11;740.88;;;710.65;;
77612;SDS011;66777;52.282;5.960;2023-07-13T03:03:37;733.80;;;704.40;;
77612;SDS011;66777;52.282;5.960;2023-07-13T03:06:05;732.67;;;703.33;;
77612;SDS011;66777;52.282;5.960;2023-07-13T03:08:32;720.70;;;693.10;;
77612;SDS011;66777;52.282;5.960;2023-07-13T03:11:03;728.78;;;699.72;;
77612;SDS011;66777;52.282;5.960;2023-07-13T03:13:30;729.15;;;699.72;;
77612;SDS011;66777;52.282;5.960;2023-07-13T03:15:56;737.67;;;707.22;;
77612;SDS011;66777;52.282;5.960;2023-07-13T03:18:22;731.83;;;702.97;;
77612;SDS011;66777;52.282;5.960;2023-07-13T03:20:51;733.58;;;704.40;;
77612;SDS011;66777;52.282;5.960;2023-07-13T03:23:17;735.83;;;706.35;;
77612;SDS011;66777;52.282;5.960;2023-07-13T03:25:44;735.63;;;706.28;;
77612;SDS011;66777;52.282;5.960;2023-07-13T03:28:10;737.75;;;708.28;;
77612;SDS011;66777;52.282;5.960;2023-07-13T03:30:37;735.22;;;705.17;;
77612;SDS011;66777;52.282;5.960;2023-07-13T03:33:03;729.60;;;700.17;;
77612;SDS011;66777;52.282;5.960;2023-07-13T03:35:28;734.88;;;705.65;;
77612;SDS011;66777;52.282;5.960;2023-07-13T03:37:54;733.65;;;704.28;;
77612;SDS011;66777;52.282;5.960;2023-07-13T03:40:20;736.33;;;707.03;;
77612;SDS011;66777;52.282;5.960;2023-07-13T03:42:46;736.75;;;707.13;;
77612;SDS011;66777;52.282;5.960;2023-07-13T03:45:11;738.00;;;707.92;;
77612;SDS011;66777;52.282;5.960;2023-07-13T03:47:37;729.13;;;700.60;;
77612;SDS011;66777;52.282;5.960;2023-07-13T03:50:03;730.72;;;702.33;;
77612;SDS011;66777;52.282;5.960;2023-07-13T03:52:29;723.75;;;695.75;;
77612;SDS011;66777;52.282;5.960;2023-07-13T03:54:55;717.25;;;690.05;;
77612;SDS011;66777;52.282;5.960;2023-07-13T03:57:21;725.10;;;696.83;;
77612;SDS011;66777;52.282;5.960;2023-07-13T03:59:47;731.45;;;702.70;;
77612;SDS011;66777;52.282;5.960;2023-07-13T04:02:12;728.80;;;700.03;;
77612;SDS011;66777;52.282;5.960;2023-07-13T04:04:38;725.50;;;696.80;;
77612;SDS011;66777;52.282;5.960;2023-07-13T04:07:05;729.83;;;700.95;;
77612;SDS011;66777;52.282;5.960;2023-07-13T04:09:33;726.17;;;697.90;;
77612;SDS011;66777;52.282;5.960;2023-07-13T04:11:59;719.58;;;691.90;;
77612;SDS011;66777;52.282;5.960;2023-07-13T04:14:25;724.20;;;696.42;;
77612;SDS011;66777;52.282;5.960;2023-07-13T04:16:51;724.35;;;696.00;;
77612;SDS011;66777;52.282;5.960;2023-07-13T04:19:17;703.33;;;677.90;;
77612;SDS011;66777;52.282;5.960;2023-07-13T04:21:42;716.88;;;689.97;;
77612;SDS011;66777;52.282;5.960;2023-07-13T04:24:08;725.15;;;696.75;;
77612;SDS011;66777;52.282;5.960;2023-07-13T04:26:34;725.97;;;697.88;;
77612;SDS011;66777;52.282;5.960;2023-07-13T04:29:03;722.60;;;694.38;;
77612;SDS011;66777;52.282;5.960;2023-07-13T04:31:29;724.17;;;696.03;;
77612;SDS011;66777;52.282;5.960;2023-07-13T04:33:56;717.25;;;689.88;;
77612;SDS011;66777;52.282;5.960;2023-07-13T04:36:22;724.60;;;696.50;;
77612;SDS011;66777;52.282;5.960;2023-07-13T04:38:48;726.00;;;697.17;;
77612;SDS011;66777;52.282;5.960;2023-07-13T04:41:14;736.15;;;705.70;;
77612;SDS011;66777;52.282;5.960;2023-07-13T04:43:40;722.80;;;694.85;;
77612;SDS011;66777;52.282;5.960;2023-07-13T04:46:08;719.88;;;692.80;;
77612;SDS011;66777;52.282;5.960;2023-07-13T04:48:36;724.38;;;695.90;;
77612;SDS011;66777;52.282;5.960;2023-07-13T04:51:02;719.00;;;691.22;;
77612;SDS011;66777;52.282;5.960;2023-07-13T04:53:28;724.22;;;695.47;;
77612;SDS011;66777;52.282;5.960;2023-07-13T04:55:55;714.47;;;687.50;;
77612;SDS011;66777;52.282;5.960;2023-07-13T04:58:22;715.03;;;688.30;;
77612;SDS011;66777;52.282;5.960;2023-07-13T05:00:49;721.25;;;692.88;;
77612;SDS011;66777;52.282;5.960;2023-07-13T05:03:15;720.60;;;692.97;;
77612;SDS011;66777;52.282;5.960;2023-07-13T05:05:41;728.28;;;699.63;;
77612;SDS011;66777;52.282;5.960;2023-07-13T05:08:06;715.95;;;688.30;;
77612;SDS011;66777;52.282;5.960;2023-07-13T05:10:33;718.35;;;691.00;;
77612;SDS011;66777;52.282;5.960;2023-07-13T05:13:00;716.97;;;689.90;;
77612;SDS011;66777;52.282;5.960;2023-07-13T05:15:26;709.90;;;682.95;;
77612;SDS011;66777;52.282;5.960;2023-07-13T05:17:52;723.20;;;695.10;;
77612;SDS011;66777;52.282;5.960;2023-07-13T05:20:18;723.72;;;695.45;;
77612;SDS011;66777;52.282;5.960;2023-07-13T05:22:44;715.65;;;688.60;;
77612;SDS011;66777;52.282;5.960;2023-07-13T05:25:12;718.30;;;690.85;;
77612;SDS011;66777;52.282;5.960;2023-07-13T05:27:38;717.08;;;689.35;;
77612;SDS011;66777;52.282;5.960;2023-07-13T05:30:04;723.65;;;695.13;;
77612;SDS011;66777;52.282;5.960;2023-07-13T05:32:31;717.35;;;689.85;;
77612;SDS011;66777;52.282;5.960;2023-07-13T05:34:56;709.67;;;682.83;;
77612;SDS011;66777;52.282;5.960;2023-07-13T05:37:22;727.53;;;699.28;;
77612;SDS011;66777;52.282;5.960;2023-07-13T05:39:48;711.95;;;684.72;;
77612;SDS011;66777;52.282;5.960;2023-07-13T05:42:14;714.92;;;687.92;;
77612;SDS011;66777;52.282;5.960;2023-07-13T05:44:40;727.28;;;697.97;;
77612;SDS011;66777;52.282;5.960;2023-07-13T05:47:05;716.95;;;689.28;;
77612;SDS011;66777;52.282;5.960;2023-07-13T05:49:31;713.70;;;685.53;;
77612;SDS011;66777;52.282;5.960;2023-07-13T05:51:57;728.63;;;700.08;;
77612;SDS011;66777;52.282;5.960;2023-07-13T05:54:22;730.92;;;701.80;;
77612;SDS011;66777;52.282;5.960;2023-07-13T05:56:48;721.78;;;693.42;;
77612;SDS011;66777;52.282;5.960;2023-07-13T05:59:14;707.63;;;680.78;;
77612;SDS011;66777;52.282;5.960;2023-07-13T06:01:40;728.13;;;699.35;;
77612;SDS011;66777;52.282;5.960;2023-07-13T06:04:06;726.28;;;696.97;;
77612;SDS011;66777;52.282;5.960;2023-07-13T06:06:32;726.25;;;697.30;;
77612;SDS011;66777;52.282;5.960;2023-07-13T06:08:58;725.85;;;697.03;;
77612;SDS011;66777;52.282;5.960;2023-07-13T06:11:24;716.30;;;688.33;;
77612;SDS011;66777;52.282;5.960;2023-07-13T06:13:52;717.35;;;689.47;;
77612;SDS011;66777;52.282;5.960;2023-07-13T06:16:19;708.95;;;682.03;;
77612;SDS011;66777;52.282;5.960;2023-07-13T06:18:44;730.75;;;701.28;;
77612;SDS011;66777;52.282;5.960;2023-07-13T06:21:14;720.75;;;692.35;;
77612;SDS011;66777;52.282;5.960;2023-07-13T06:23:41;723.00;;;694.85;;
77612;SDS011;66777;52.282;5.960;2023-07-13T06:26:07;715.25;;;687.55;;
77612;SDS011;66777;52.282;5.960;2023-07-13T06:28:34;723.33;;;694.92;;
77612;SDS011;66777;52.282;5.960;2023-07-13T06:31:00;728.97;;;699.90;;
77612;SDS011;66777;52.282;5.960;2023-07-13T06:33:26;719.03;;;690.80;;
77612;SDS011;66777;52.282;5.960;2023-07-13T06:35:52;720.60;;;691.92;;
77612;SDS011;66777;52.282;5.960;2023-07-13T06:38:19;721.53;;;693.00;;
77612;SDS011;66777;52.282;5.960;2023-07-13T06:40:45;713.35;;;685.92;;
77612;SDS011;66777;52.282;5.960;2023-07-13T06:43:11;710.03;;;683.20;;
77612;SDS011;66777;52.282;5.960;2023-07-13T06:45:41;725.85;;;695.83;;
77612;SDS011;66777;52.282;5.960;2023-07-13T06:48:11;726.53;;;697.65;;
77612;SDS011;66777;52.282;5.960;2023-07-13T06:50:36;729.78;;;700.75;;
77612;SDS011;66777;52.282;5.960;2023-07-13T06:53:02;729.67;;;700.10;;
77612;SDS011;66777;52.282;5.960;2023-07-13T06:55:28;725.60;;;696.00;;
77612;SDS011;66777;52.282;5.960;2023-07-13T06:57:54;720.63;;;693.00;;
77612;SDS011;66777;52.282;5.960;2023-07-13T07:00:19;734.15;;;704.30;;
77612;SDS011;66777;52.282;5.960;2023-07-13T07:02:45;731.40;;;701.97;;
77612;SDS011;66777;52.282;5.960;2023-07-13T07:05:33;731.83;;;702.60;;
77612;SDS011;66777;52.282;5.960;2023-07-13T07:07:58;717.03;;;688.80;;
77612;SDS011;66777;52.282;5.960;2023-07-13T07:10:24;730.63;;;700.30;;
77612;SDS011;66777;52.282;5.960;2023-07-13T07:12:50;724.75;;;696.58;;
77612;SDS011;66777;52.282;5.960;2023-07-13T07:15:16;727.28;;;698.53;;
77612;SDS011;66777;52.282;5.960;2023-07-13T07:17:43;729.40;;;700.28;;
77612;SDS011;66777;52.282;5.960;2023-07-13T07:20:09;720.97;;;692.78;;
77612;SDS011;66777;52.282;5.960;2023-07-13T07:22:35;737.78;;;706.97;;
77612;SDS011;66777;52.282;5.960;2023-07-13T07:25:01;731.75;;;702.10;;
77612;SDS011;66777;52.282;5.960;2023-07-13T07:27:27;728.47;;;699.17;;
77612;SDS011;66777;52.282;5.960;2023-07-13T07:29:52;732.38;;;702.45;;
77612;SDS011;66777;52.282;5.960;2023-07-13T07:32:19;750.88;;;718.85;;
77612;SDS011;66777;52.282;5.960;2023-07-13T07:34:45;719.03;;;690.53;;
77612;SDS011;66777;52.282;5.960;2023-07-13T07:37:11;731.28;;;701.85;;
77612;SDS011;66777;52.282;5.960;2023-07-13T07:39:38;739.70;;;709.58;;
77612;SDS011;66777;52.282;5.960;2023-07-13T07:42:04;737.42;;;706.80;;
77612;SDS011;66777;52.282;5.960;2023-07-13T07:44:31;731.13;;;700.75;;
77612;SDS011;66777;52.282;5.960;2023-07-13T07:46:57;736.83;;;706.90;;
77612;SDS011;66777;52.282;5.960;2023-07-13T07:49:23;736.85;;;706.08;;
77612;SDS011;66777;52.282;5.960;2023-07-13T07:51:49;731.28;;;701.72;;
77612;SDS011;66777;52.282;5.960;2023-07-13T07:54:15;740.10;;;709.15;;
77612;SDS011;66777;52.282;5.960;2023-07-13T07:56:41;719.70;;;691.55;;
77612;SDS011;66777;52.282;5.960;2023-07-13T07:59:07;731.08;;;701.03;;
77612;SDS011;66777;52.282;5.960;2023-07-13T08:01:33;741.95;;;710.75;;
77612;SDS011;66777;52.282;5.960;2023-07-13T08:03:58;732.42;;;702.33;;
77612;SDS011;66777;52.282;5.960;2023-07-13T08:06:24;733.35;;;703.25;;
77612;SDS011;66777;52.282;5.960;2023-07-13T08:08:50;733.85;;;703.58;;
77612;SDS011;66777;52.282;5.960;2023-07-13T08:11:16;740.20;;;709.15;;
77612;SDS011;66777;52.282;5.960;2023-07-13T08:13:42;737.60;;;706.92;;
77612;SDS011;66777;52.282;5.960;2023-07-13T08:16:07;739.67;;;709.25;;
77612;SDS011;66777;52.282;5.960;2023-07-13T08:18:33;735.55;;;704.88;;
77612;SDS011;66777;52.282;5.960;2023-07-13T08:21:03;736.60;;;706.53;;
77612;SDS011;66777;52.282;5.960;2023-07-13T08:23:30;740.55;;;709.40;;
77612;SDS011;66777;52.282;5.960;2023-07-13T08:25:55;737.13;;;706.72;;
77612;SDS011;66777;52.282;5.960;2023-07-13T08:28:22;740.92;;;709.78;;
77612;SDS011;66777;52.282;5.960;2023-07-13T08:30:48;743.65;;;711.63;;
77612;SDS011;66777;52.282;5.960;2023-07-13T08:33:17;743.78;;;712.08;;
77612;SDS011;66777;52.282;5.960;2023-07-13T08:35:47;737.45;;;707.25;;
77612;SDS011;66777;52.282;5.960;2023-07-13T08:38:14;734.40;;;703.90;;
77612;SDS011;66777;52.282;5.960;2023-07-13T08:40:40;738.13;;;707.65;;
77612;SDS011;66777;52.282;5.960;2023-07-13T08:46:01;738.97;;;708.40;;
77612;SDS011;66777;52.282;5.960;2023-07-13T08:48:42;742.97;;;711.72;;
77612;SDS011;66777;52.282;5.960;2023-07-13T08:51:23;743.13;;;711.67;;
77612;SDS011;66777;52.282;5.960;2023-07-13T08:53:58;739.47;;;708.10;;
77612;SDS011;66777;52.282;5.960;2023-07-13T08:56:28;742.58;;;711.25;;
77612;SDS011;66777;52.282;5.960;2023-07-13T08:58:56;743.25;;;712.13;;
77612;SDS011;66777;52.282;5.960;2023-07-13T09:01:33;738.05;;;706.75;;
77612;SDS011;66777;52.282;5.960;2023-07-13T09:12:54;735.72;;;704.38;;
77612;SDS011;66777;52.282;5.960;2023-07-13T09:18:21;741.40;;;709.47;;
77612;SDS011;66777;52.282;5.960;2023-07-13T09:20:48;734.03;;;703.60;;
77612;SDS011;66777;52.282;5.960;2023-07-13T09:23:22;741.78;;;710.65;;
77612;SDS011;66777;52.282;5.960;2023-07-13T09:25:53;734.13;;;703.72;;
77612;SDS011;66777;52.282;5.960;2023-07-13T09:28:27;736.83;;;706.22;;
77612;SDS011;66777;52.282;5.960;2023-07-13T09:31:05;739.33;;;708.67;;
77612;SDS011;66777;52.282;5.960;2023-07-13T09:33:41;727.22;;;697.58;;
77612;SDS011;66777;52.282;5.960;2023-07-13T09:36:30;731.03;;;700.45;;
77612;SDS011;66777;52.282;5.960;2023-07-13T09:44:42;743.28;;;711.72;;
77612;SDS011;66777;52.282;5.960;2023-07-13T09:47:15;736.10;;;706.03;;
77612;SDS011;66777;52.282;5.960;2023-07-13T09:49:42;741.95;;;710.80;;
77612;SDS011;66777;52.282;5.960;2023-07-13T09:52:12;740.85;;;709.97;;
77612;SDS011;66777;52.282;5.960;2023-07-13T09:54:44;733.72;;;703.50;;
77612;SDS011;66777;52.282;5.960;2023-07-13T09:57:13;723.53;;;694.92;;
77612;SDS011;66777;52.282;5.960;2023-07-13T09:59:43;729.58;;;699.78;;
77612;SDS011;66777;52.282;5.960;2023-07-13T10:07:37;729.13;;;700.10;;
77612;SDS011;66777;52.282;5.960;2023-07-13T10:10:13;736.92;;;706.22;;
77612;SDS011;66777;52.282;5.960;2023-07-13T10:12:41;733.47;;;703.15;;
77612;SDS011;66777;52.282;5.960;2023-07-13T10:15:13;743.00;;;711.80;;
77612;SDS011;66777;52.282;5.960;2023-07-13T10:17:43;729.67;;;700.30;;
77612;SDS011;66777;52.282;5.960;2023-07-13T10:20:10;745.35;;;714.47;;
77612;SDS011;66777;52.282;5.960;2023-07-13T10:25:31;737.80;;;707.10;;
77612;SDS011;66777;52.282;5.960;2023-07-13T10:28:04;742.28;;;711.33;;
77612;SDS011;66777;52.282;5.960;2023-07-13T10:30:39;742.25;;;711.53;;
77612;SDS011;66777;52.282;5.960;2023-07-13T10:33:12;740.03;;;709.40;;
77612;SDS011;66777;52.282;5.960;2023-07-13T10:35:39;742.88;;;712.28;;
77612;SDS011;66777;52.282;5.960;2023-07-13T10:38:10;747.60;;;716.00;;
77612;SDS011;66777;52.282;5.960;2023-07-13T10:40:39;750.33;;;717.80;;
77612;SDS011;66777;52.282;5.960;2023-07-13T10:45:43;753.42;;;721.00;;
77612;SDS011;66777;52.282;5.960;2023-07-13T10:48:13;744.58;;;712.95;;
77612;SDS011;66777;52.282;5.960;2023-07-13T10:50:40;729.88;;;700.47;;
77612;SDS011;66777;52.282;5.960;2023-07-13T10:53:28;747.72;;;715.67;;
77612;SDS011;66777;52.282;5.960;2023-07-13T10:55:57;750.88;;;718.00;;
77612;SDS011;66777;52.282;5.960;2023-07-13T11:03:32;745.78;;;714.33;;
77612;SDS011;66777;52.282;5.960;2023-07-13T11:06:05;743.17;;;712.08;;
77612;SDS011;66777;52.282;5.960;2023-07-13T11:08:35;734.83;;;704.95;;
77612;SDS011;66777;52.282;5.960;2023-07-13T11:13:55;736.45;;;706.55;;
77612;SDS011;66777;52.282;5.960;2023-07-13T11:28:04;742.90;;;711.40;;
77612;SDS011;66777;52.282;5.960;2023-07-13T11:33:15;749.63;;;717.25;;
77612;SDS011;66777;52.282;5.960;2023-07-13T11:41:10;742.00;;;710.38;;
77612;SDS011;66777;52.282;5.960;2023-07-13T11:43:44;747.72;;;715.38;;
77612;SDS011;66777;52.282;5.960;2023-07-13T11:46:21;748.55;;;715.78;;
77612;SDS011;66777;52.282;5.960;2023-07-13T11:48:51;750.17;;;717.78;;
77612;SDS011;66777;52.282;5.960;2023-07-13T11:53:48;750.90;;;718.35;;
77612;SDS011;66777;52.282;5.960;2023-07-13T11:56:16;744.65;;;712.90;;
77612;SDS011;66777;52.282;5.960;2023-07-13T11:58:42;747.83;;;715.38;;
77612;SDS011;66777;52.282;5.960;2023-07-13T12:03:43;745.38;;;713.80;;
77612;SDS011;66777;52.282;5.960;2023-07-13T12:06:25;751.47;;;718.90;;
77612;SDS011;66777;52.282;5.960;2023-07-13T12:08:55;747.65;;;716.08;;
77612;SDS011;66777;52.282;5.960;2023-07-13T12:13:48;748.67;;;717.33;;
77612;SDS011;66777;52.282;5.960;2023-07-13T12:16:25;741.75;;;711.10;;
77612;SDS011;66777;52.282;5.960;2023-07-13T12:18:55;743.00;;;711.80;;
77612;SDS011;66777;52.282;5.960;2023-07-13T12:21:24;744.85;;;713.22;;
77612;SDS011;66777;52.282;5.960;2023-07-13T12:23:57;747.40;;;715.45;;
77612;SDS011;66777;52.282;5.960;2023-07-13T12:26:24;744.78;;;713.67;;
77612;SDS011;66777;52.282;5.960;2023-07-13T12:28:51;753.28;;;720.88;;
77612;SDS011;66777;52.282;5.960;2023-07-13T12:31:37;746.30;;;715.22;;
77612;SDS011;66777;52.282;5.960;2023-07-13T12:34:17;743.00;;;711.63;;
77612;SDS011;66777;52.282;5.960;2023-07-13T12:36:55;743.13;;;711.83;;
77612;SDS011;66777;52.282;5.960;2023-07-13T12:39:25;744.47;;;712.92;;
77612;SDS011;66777;52.282;5.960;2023-07-13T12:42:13;749.15;;;717.53;;
77612;SDS011;66777;52.282;5.960;2023-07-13T12:45:00;754.33;;;720.75;;
77612;SDS011;66777;52.282;5.960;2023-07-13T12:47:27;749.00;;;716.78;;
77612;SDS011;66777;52.282;5.960;2023-07-13T12:49:58;755.92;;;722.45;;
77612;SDS011;66777;52.282;5.960;2023-07-13T12:52:30;748.60;;;716.13;;
77612;SDS011;66777;52.282;5.960;2023-07-13T12:55:03;756.60;;;722.65;;
77612;SDS011;66777;52.282;5.960;2023-07-13T12:57:30;749.30;;;716.28;;
77612;SDS011;66777;52.282;5.960;2023-07-13T12:59:56;752.92;;;719.25;;
77612;SDS011;66777;52.282;5.960;2023-07-13T13:02:30;748.83;;;716.05;;
77612;SDS011;66777;52.282;5.960;2023-07-13T13:05:00;746.47;;;714.75;;
77612;SDS011;66777;52.282;5.960;2023-07-13T13:07:28;757.55;;;723.88;;
77612;SDS011;66777;52.282;5.960;2023-07-13T13:09:54;756.83;;;722.95;;
77612;SDS011;66777;52.282;5.960;2023-07-13T13:12:21;755.72;;;722.25;;
77612;SDS011;66777;52.282;5.960;2023-07-13T13:14:49;750.20;;;717.17;;
77612;SDS011;66777;52.282;5.960;2023-07-13T13:17:18;763.20;;;728.70;;
77612;SDS011;66777;52.282;5.960;2023-07-13T13:19:46;748.22;;;716.05;;
77612;SDS011;66777;52.282;5.960;2023-07-13T13:22:12;751.60;;;718.53;;
77612;SDS011;66777;52.282;5.960;2023-07-13T13:24:38;759.85;;;725.47;;
77612;SDS011;66777;52.282;5.960;2023-07-13T13:27:04;758.13;;;723.92;;
77612;SDS011;66777;52.282;5.960;2023-07-13T13:29:36;760.78;;;726.13;;
77612;SDS011;66777;52.282;5.960;2023-07-13T13:32:04;753.42;;;720.30;;
77612;SDS011;66777;52.282;5.960;2023-07-13T13:34:31;755.42;;;722.10;;
77612;SDS011;66777;52.282;5.960;2023-07-13T13:36:56;759.85;;;725.08;;
77612;SDS011;66777;52.282;5.960;2023-07-13T13:39:23;755.88;;;722.25;;
77612;SDS011;66777;52.282;5.960;2023-07-13T13:41:59;767.22;;;731.17;;
77612;SDS011;66777;52.282;5.960;2023-07-13T13:44:24;752.83;;;719.90;;
77612;SDS011;66777;52.282;5.960;2023-07-13T13:46:52;749.47;;;716.88;;
77612;SDS011;66777;52.282;5.960;2023-07-13T13:49:21;748.88;;;715.70;;
77612;SDS011;66777;52.282;5.960;2023-07-13T13:51:48;753.63;;;720.40;;
77612;SDS011;66777;52.282;5.960;2023-07-13T13:54:16;761.40;;;725.70;;
77612;SDS011;66777;52.282;5.960;2023-07-13T13:56:44;756.45;;;723.20;;
77612;SDS011;66777;52.282;5.960;2023-07-13T13:59:11;747.20;;;715.20;;
77612;SDS011;66777;52.282;5.960;2023-07-13T14:01:38;760.35;;;725.67;;
77612;SDS011;66777;52.282;5.960;2023-07-13T14:04:05;755.45;;;722.42;;
77612;SDS011;66777;52.282;5.960;2023-07-13T14:06:32;751.13;;;718.60;;
77612;SDS011;66777;52.282;5.960;2023-07-13T14:09:02;753.17;;;720.03;;
77612;SDS011;66777;52.282;5.960;2023-07-13T14:11:28;748.65;;;715.47;;
77612;SDS011;66777;52.282;5.960;2023-07-13T14:13:56;745.97;;;713.75;;
77612;SDS011;66777;52.282;5.960;2023-07-13T14:16:28;755.47;;;722.17;;
77612;SDS011;66777;52.282;5.960;2023-07-13T14:18:57;750.45;;;717.67;;
77612;SDS011;66777;52.282;5.960;2023-07-13T14:21:25;757.17;;;723.90;;
77612;SDS011;66777;52.282;5.960;2023-07-13T14:23:53;745.42;;;713.70;;
77612;SDS011;66777;52.282;5.960;2023-07-13T14:26:19;755.42;;;721.50;;
77612;SDS011;66777;52.282;5.960;2023-07-13T14:28:48;756.00;;;722.40;;
77612;SDS011;66777;52.282;5.960;2023-07-13T14:31:20;762.33;;;728.08;;
77612;SDS011;66777;52.282;5.960;2023-07-13T14:33:46;761.20;;;726.97;;
77612;SDS011;66777;52.282;5.960;2023-07-13T14:36:27;762.55;;;727.60;;
77612;SDS011;66777;52.282;5.960;2023-07-13T14:38:58;761.78;;;727.10;;
77612;SDS011;66777;52.282;5.960;2023-07-13T14:41:25;755.53;;;722.28;;
77612;SDS011;66777;52.282;5.960;2023-07-13T14:43:52;762.97;;;728.65;;
77612;SDS011;66777;52.282;5.960;2023-07-13T14:46:29;761.47;;;727.45;;
77612;SDS011;66777;52.282;5.960;2023-07-13T14:49:39;747.80;;;715.35;;
77612;SDS011;66777;52.282;5.960;2023-07-13T14:51:54;754.25;;;721.08;;
77612;SDS011;66777;52.282;5.960;2023-07-13T14:54:22;758.88;;;724.83;;
77612;SDS011;66777;52.282;5.960;2023-07-13T14:56:49;763.13;;;728.45;;
77612;SDS011;66777;52.282;5.960;2023-07-13T14:59:15;757.03;;;723.10;;
77612;SDS011;66777;52.282;5.960;2023-07-13T15:01:43;765.38;;;730.10;;
77612;SDS011;66777;52.282;5.960;2023-07-13T15:04:10;753.85;;;720.83;;
77612;SDS011;66777;52.282;5.960;2023-07-13T15:06:54;759.22;;;724.33;;
77612;SDS011;66777;52.282;5.960;2023-07-13T15:09:21;755.33;;;721.35;;
77612;SDS011;66777;52.282;5.960;2023-07-13T15:11:50;756.58;;;723.10;;
77612;SDS011;66777;52.282;5.960;2023-07-13T15:14:17;752.85;;;719.47;;
77612;SDS011;66777;52.282;5.960;2023-07-13T15:16:43;775.30;;;738.28;;
77612;SDS011;66777;52.282;5.960;2023-07-13T15:19:11;747.17;;;714.65;;